sensor_id;sensor_type;location;lat;lon;timestamp;temperature;humidity
2767;DHT22;1391;46.742;11.636;2022-10-23T00:01:42;9.20;99.90
2767;DHT22;1391;46.742;11.636;2022-10-23T00:04:13;9.70;99.90
2767;DHT22;1391;46.742;11.636;2022-10-23T00:06:42;9.50;99.90
2767;DHT22;1391;46.742;11.636;2022-10-23T00:09:15;9.30;99.90
2767;DHT22;1391;46.742;11.636;2022-10-23T00:11:44;9.30;99.90
2767;DHT22;1391;46.742;11.636;2022-10-23T00:14:13;9.60;99.90
2767;DHT22;1391;46.742;11.636;2022-10-23T00:16:42;9.60;99.90
2767;DHT22;1391;46.742;11.636;2022-10-23T00:19:10;9.60;99.90
2767;DHT22;1391;46.742;11.636;2022-10-23T00:21:38;9.60;99.90
2767;DHT22;1391;46.742;11.636;2022-10-23T00:24:07;9.60;99.90
2767;DHT22;1391;46.742;11.636;2022-10-23T00:26:36;9.60;99.90
2767;DHT22;1391;46.742;11.636;2022-10-23T00:29:06;9.60;99.90
2767;DHT22;1391;46.742;11.636;2022-10-23T00:31:35;9.70;99.90
2767;DHT22;1391;46.742;11.636;2022-10-23T00:34:04;9.80;99.90
2767;DHT22;1391;46.742;11.636;2022-10-23T00:36:34;9.60;99.90
2767;DHT22;1391;46.742;11.636;2022-10-23T00:39:02;9.60;99.90
2767;DHT22;1391;46.742;11.636;2022-10-23T00:41:29;9.70;99.90
2767;DHT22;1391;46.742;11.636;2022-10-23T00:44:03;9.90;99.90
2767;DHT22;1391;46.742;11.636;2022-10-23T00:46:34;9.70;99.90
2767;DHT22;1391;46.742;11.636;2022-10-23T00:49:04;9.80;99.90
2767;DHT22;1391;46.742;11.636;2022-10-23T00:51:37;10.00;99.90
2767;DHT22;1391;46.742;11.636;2022-10-23T00:54:06;9.90;99.90
2767;DHT22;1391;46.742;11.636;2022-10-23T00:56:38;9.80;99.90
2767;DHT22;1391;46.742;11.636;2022-10-23T00:59:08;9.60;99.90
2767;DHT22;1391;46.742;11.636;2022-10-23T01:01:35;9.30;99.90
2767;DHT22;1391;46.742;11.636;2022-10-23T01:04:04;9.30;99.90
2767;DHT22;1391;46.742;11.636;2022-10-23T01:06:36;9.60;99.90
2767;DHT22;1391;46.742;11.636;2022-10-23T01:09:11;9.60;99.90
2767;DHT22;1391;46.742;11.636;2022-10-23T01:11:48;9.60;99.90
2767;DHT22;1391;46.742;11.636;2022-10-23T01:14:26;9.60;99.90
2767;DHT22;1391;46.742;11.636;2022-10-23T01:17:02;9.60;99.90
2767;DHT22;1391;46.742;11.636;2022-10-23T01:19:45;9.60;99.90
2767;DHT22;1391;46.742;11.636;2022-10-23T01:22:31;9.60;99.90
2767;DHT22;1391;46.742;11.636;2022-10-23T01:25:11;9.60;99.90
2767;DHT22;1391;46.742;11.636;2022-10-23T01:27:51;9.60;99.90
2767;DHT22;1391;46.742;11.636;2022-10-23T01:30:21;9.60;99.90
2767;DHT22;1391;46.742;11.636;2022-10-23T01:32:53;9.70;99.90
2767;DHT22;1391;46.742;11.636;2022-10-23T01:35:25;9.80;99.90
2767;DHT22;1391;46.742;11.636;2022-10-23T01:38:02;9.60;99.90
2767;DHT22;1391;46.742;11.636;2022-10-23T01:40:36;9.60;99.90
2767;DHT22;1391;46.742;11.636;2022-10-23T01:43:12;9.60;99.90
2767;DHT22;1391;46.742;11.636;2022-10-23T01:45:43;9.60;99.90
2767;DHT22;1391;46.742;11.636;2022-10-23T01:48:15;9.60;99.90
2767;DHT22;1391;46.742;11.636;2022-10-23T01:50:46;9.60;99.90
2767;DHT22;1391;46.742;11.636;2022-10-23T01:53:15;9.60;99.90
2767;DHT22;1391;46.742;11.636;2022-10-23T01:55:43;9.70;99.90
2767;DHT22;1391;46.742;11.636;2022-10-23T01:58:14;9.90;99.90
2767;DHT22;1391;46.742;11.636;2022-10-23T02:00:44;9.70;99.90
2767;DHT22;1391;46.742;11.636;2022-10-23T02:03:15;9.90;99.90
2767;DHT22;1391;46.742;11.636;2022-10-23T02:05:43;9.80;99.90
2767;DHT22;1391;46.742;11.636;2022-10-23T02:08:11;9.60;99.90
2767;DHT22;1391;46.742;11.636;2022-10-23T02:10:43;9.60;99.90
2767;DHT22;1391;46.742;11.636;2022-10-23T02:13:22;9.60;99.90
2767;DHT22;1391;46.742;11.636;2022-10-23T02:15:58;9.60;99.90
2767;DHT22;1391;46.742;11.636;2022-10-23T02:18:36;9.60;99.90
2767;DHT22;1391;46.742;11.636;2022-10-23T02:21:10;9.60;99.90
2767;DHT22;1391;46.742;11.636;2022-10-23T02:23:46;9.60;99.90
2767;DHT22;1391;46.742;11.636;2022-10-23T02:26:22;9.60;99.90
2767;DHT22;1391;46.742;11.636;2022-10-23T02:28:56;9.60;99.90
2767;DHT22;1391;46.742;11.636;2022-10-23T02:31:25;9.70;99.90
2767;DHT22;1391;46.742;11.636;2022-10-23T02:33:53;9.90;99.90
2767;DHT22;1391;46.742;11.636;2022-10-23T02:36:21;9.80;99.90
2767;DHT22;1391;46.742;11.636;2022-10-23T02:38:49;10.00;99.90
2767;DHT22;1391;46.742;11.636;2022-10-23T02:41:29;9.90;99.90
2767;DHT22;1391;46.742;11.636;2022-10-23T02:44:30;9.70;99.90
2767;DHT22;1391;46.742;11.636;2022-10-23T02:47:11;9.90;99.90
2767;DHT22;1391;46.742;11.636;2022-10-23T02:49:52;9.70;99.90
2767;DHT22;1391;46.742;11.636;2022-10-23T02:52:33;9.90;99.90
2767;DHT22;1391;46.742;11.636;2022-10-23T02:55:13;9.80;99.90
2767;DHT22;1391;46.742;11.636;2022-10-23T02:57:50;9.60;99.90
2767;DHT22;1391;46.742;11.636;2022-10-23T03:00:23;9.60;99.90
2767;DHT22;1391;46.742;11.636;2022-10-23T03:02:54;9.60;99.90
2767;DHT22;1391;46.742;11.636;2022-10-23T03:05:26;9.60;99.90
2767;DHT22;1391;46.742;11.636;2022-10-23T03:07:55;9.30;99.90
2767;DHT22;1391;46.742;11.636;2022-10-23T03:10:23;9.20;99.90
2767;DHT22;1391;46.742;11.636;2022-10-23T03:12:51;9.80;99.90
2767;DHT22;1391;46.742;11.636;2022-10-23T03:15:18;9.20;99.90
2767;DHT22;1391;46.742;11.636;2022-10-23T03:17:47;9.40;99.90
2767;DHT22;1391;46.742;11.636;2022-10-23T03:20:16;9.90;99.90
2767;DHT22;1391;46.742;11.636;2022-10-23T03:22:43;9.80;99.90
2767;DHT22;1391;46.742;11.636;2022-10-23T03:25:11;9.90;99.90
2767;DHT22;1391;46.742;11.636;2022-10-23T03:27:39;9.70;99.90
2767;DHT22;1391;46.742;11.636;2022-10-23T03:30:08;9.90;99.90
2767;DHT22;1391;46.742;11.636;2022-10-23T03:32:36;9.70;99.90
2767;DHT22;1391;46.742;11.636;2022-10-23T03:35:06;9.80;99.90
2767;DHT22;1391;46.742;11.636;2022-10-23T03:37:34;9.60;99.90
2767;DHT22;1391;46.742;11.636;2022-10-23T03:40:02;9.70;99.90
2767;DHT22;1391;46.742;11.636;2022-10-23T03:42:30;9.90;99.90
2767;DHT22;1391;46.742;11.636;2022-10-23T03:44:57;9.80;99.90
2767;DHT22;1391;46.742;11.636;2022-10-23T03:47:25;9.60;99.90
2767;DHT22;1391;46.742;11.636;2022-10-23T03:49:52;9.60;99.90
2767;DHT22;1391;46.742;11.636;2022-10-23T03:52:21;9.60;99.90
2767;DHT22;1391;46.742;11.636;2022-10-23T03:54:48;9.70;99.90
2767;DHT22;1391;46.742;11.636;2022-10-23T03:57:16;9.80;99.90
2767;DHT22;1391;46.742;11.636;2022-10-23T03:59:44;10.00;99.90
2767;DHT22;1391;46.742;11.636;2022-10-23T04:02:11;9.90;99.90
2767;DHT22;1391;46.742;11.636;2022-10-23T04:04:39;9.80;99.90
2767;DHT22;1391;46.742;11.636;2022-10-23T04:07:07;10.30;99.90
2767;DHT22;1391;46.742;11.636;2022-10-23T04:09:37;9.80;99.90
2767;DHT22;1391;46.742;11.636;2022-10-23T04:12:05;9.60;99.90
2767;DHT22;1391;46.742;11.636;2022-10-23T04:14:34;9.60;99.90
2767;DHT22;1391;46.742;11.636;2022-10-23T04:17:02;9.60;99.90
2767;DHT22;1391;46.742;11.636;2022-10-23T04:19:29;9.70;99.90
2767;DHT22;1391;46.742;11.636;2022-10-23T04:21:58;9.90;99.90
2767;DHT22;1391;46.742;11.636;2022-10-23T04:24:25;10.10;99.90
2767;DHT22;1391;46.742;11.636;2022-10-23T04:26:54;9.80;99.90
2767;DHT22;1391;46.742;11.636;2022-10-23T04:29:22;10.30;99.90
2767;DHT22;1391;46.742;11.636;2022-10-23T04:31:52;10.10;99.90
2767;DHT22;1391;46.742;11.636;2022-10-23T04:34:20;9.70;99.90
2767;DHT22;1391;46.742;11.636;2022-10-23T04:36:47;10.20;99.90
2767;DHT22;1391;46.742;11.636;2022-10-23T04:39:15;10.40;99.90
2767;DHT22;1391;46.742;11.636;2022-10-23T04:41:43;10.40;99.90
2767;DHT22;1391;46.742;11.636;2022-10-23T04:44:12;10.30;99.90
2767;DHT22;1391;46.742;11.636;2022-10-23T04:46:39;10.10;99.90
2767;DHT22;1391;46.742;11.636;2022-10-23T04:49:07;10.00;99.90
2767;DHT22;1391;46.742;11.636;2022-10-23T04:51:34;10.20;99.90
2767;DHT22;1391;46.742;11.636;2022-10-23T04:54:03;10.30;99.90
2767;DHT22;1391;46.742;11.636;2022-10-23T04:56:30;10.10;99.90
2767;DHT22;1391;46.742;11.636;2022-10-23T04:58:58;10.10;99.90
2767;DHT22;1391;46.742;11.636;2022-10-23T05:01:27;9.80;99.90
2767;DHT22;1391;46.742;11.636;2022-10-23T05:03:54;10.30;99.90
2767;DHT22;1391;46.742;11.636;2022-10-23T05:06:22;10.00;99.90
2767;DHT22;1391;46.742;11.636;2022-10-23T05:08:50;10.20;99.90
2767;DHT22;1391;46.742;11.636;2022-10-23T05:11:17;10.30;99.90
2767;DHT22;1391;46.742;11.636;2022-10-23T05:13:45;10.10;99.90
2767;DHT22;1391;46.742;11.636;2022-10-23T05:16:19;10.00;99.90
2767;DHT22;1391;46.742;11.636;2022-10-23T05:19:01;10.30;99.90
2767;DHT22;1391;46.742;11.636;2022-10-23T05:21:32;10.10;99.90
2767;DHT22;1391;46.742;11.636;2022-10-23T05:24:02;10.10;99.90
2767;DHT22;1391;46.742;11.636;2022-10-23T05:26:30;10.10;99.90
2767;DHT22;1391;46.742;11.636;2022-10-23T05:28:58;10.00;99.90
2767;DHT22;1391;46.742;11.636;2022-10-23T05:31:25;10.20;99.90
2767;DHT22;1391;46.742;11.636;2022-10-23T05:33:54;10.30;99.90
2767;DHT22;1391;46.742;11.636;2022-10-23T05:36:23;10.20;99.90
2767;DHT22;1391;46.742;11.636;2022-10-23T05:38:51;10.30;99.90
2767;DHT22;1391;46.742;11.636;2022-10-23T05:41:19;10.10;99.90
2767;DHT22;1391;46.742;11.636;2022-10-23T05:43:46;10.10;99.90
2767;DHT22;1391;46.742;11.636;2022-10-23T05:46:14;10.00;99.90
2767;DHT22;1391;46.742;11.636;2022-10-23T05:48:41;10.20;99.90
2767;DHT22;1391;46.742;11.636;2022-10-23T05:51:10;10.30;99.90
2767;DHT22;1391;46.742;11.636;2022-10-23T05:53:42;10.10;99.90
2767;DHT22;1391;46.742;11.636;2022-10-23T05:56:10;10.10;99.90
2767;DHT22;1391;46.742;11.636;2022-10-23T05:58:38;10.10;99.90
2767;DHT22;1391;46.742;11.636;2022-10-23T06:01:06;10.10;99.90
2767;DHT22;1391;46.742;11.636;2022-10-23T06:03:34;10.10;99.90
2767;DHT22;1391;46.742;11.636;2022-10-23T06:06:02;10.10;99.90
2767;DHT22;1391;46.742;11.636;2022-10-23T06:08:32;10.10;99.90
2767;DHT22;1391;46.742;11.636;2022-10-23T06:11:05;10.10;99.90
2767;DHT22;1391;46.742;11.636;2022-10-23T06:13:34;10.10;99.90
2767;DHT22;1391;46.742;11.636;2022-10-23T06:16:08;10.10;99.90
2767;DHT22;1391;46.742;11.636;2022-10-23T06:18:36;10.10;99.90
2767;DHT22;1391;46.742;11.636;2022-10-23T06:21:03;10.10;99.90
2767;DHT22;1391;46.742;11.636;2022-10-23T06:23:33;10.10;99.90
2767;DHT22;1391;46.742;11.636;2022-10-23T06:26:02;10.10;99.90
2767;DHT22;1391;46.742;11.636;2022-10-23T06:28:30;10.10;99.90
2767;DHT22;1391;46.742;11.636;2022-10-23T06:30:58;10.10;99.90
2767;DHT22;1391;46.742;11.636;2022-10-23T06:33:25;10.10;99.90
2767;DHT22;1391;46.742;11.636;2022-10-23T06:35:54;10.10;99.90
2767;DHT22;1391;46.742;11.636;2022-10-23T06:38:22;10.20;99.90
2767;DHT22;1391;46.742;11.636;2022-10-23T06:40:53;10.40;99.90
2767;DHT22;1391;46.742;11.636;2022-10-23T06:43:21;10.70;99.90
2767;DHT22;1391;46.742;11.636;2022-10-23T06:45:48;10.80;99.90
2767;DHT22;1391;46.742;11.636;2022-10-23T06:48:16;10.10;99.90
2767;DHT22;1391;46.742;11.636;2022-10-23T06:50:43;10.50;99.90
2767;DHT22;1391;46.742;11.636;2022-10-23T06:53:10;10.10;99.90
2767;DHT22;1391;46.742;11.636;2022-10-23T06:55:38;10.50;99.90
2767;DHT22;1391;46.742;11.636;2022-10-23T06:58:07;10.80;99.90
2767;DHT22;1391;46.742;11.636;2022-10-23T07:00:36;10.40;99.90
2767;DHT22;1391;46.742;11.636;2022-10-23T07:03:04;10.70;99.90
2767;DHT22;1391;46.742;11.636;2022-10-23T07:05:33;10.50;99.90
2767;DHT22;1391;46.742;11.636;2022-10-23T07:08:00;10.90;99.90
2767;DHT22;1391;46.742;11.636;2022-10-23T07:10:28;10.80;99.90
2767;DHT22;1391;46.742;11.636;2022-10-23T07:12:57;10.80;99.90
2767;DHT22;1391;46.742;11.636;2022-10-23T07:15:27;10.90;99.90
2767;DHT22;1391;46.742;11.636;2022-10-23T07:17:55;10.80;99.90
2767;DHT22;1391;46.742;11.636;2022-10-23T07:20:22;10.90;99.90
2767;DHT22;1391;46.742;11.636;2022-10-23T07:22:50;10.90;99.90
2767;DHT22;1391;46.742;11.636;2022-10-23T07:25:19;11.20;99.90
2767;DHT22;1391;46.742;11.636;2022-10-23T07:27:47;11.20;99.90
2767;DHT22;1391;46.742;11.636;2022-10-23T07:30:14;10.60;99.90
2767;DHT22;1391;46.742;11.636;2022-10-23T07:32:44;11.40;99.90
2767;DHT22;1391;46.742;11.636;2022-10-23T07:35:12;11.40;99.90
2767;DHT22;1391;46.742;11.636;2022-10-23T07:37:40;11.30;99.90
2767;DHT22;1391;46.742;11.636;2022-10-23T07:40:09;11.30;99.90
2767;DHT22;1391;46.742;11.636;2022-10-23T07:42:38;11.30;99.90
2767;DHT22;1391;46.742;11.636;2022-10-23T07:45:09;11.30;99.90
2767;DHT22;1391;46.742;11.636;2022-10-23T07:47:37;11.30;99.90
2767;DHT22;1391;46.742;11.636;2022-10-23T07:50:07;11.30;99.90
2767;DHT22;1391;46.742;11.636;2022-10-23T07:52:35;11.30;99.90
2767;DHT22;1391;46.742;11.636;2022-10-23T07:55:03;11.30;99.90
2767;DHT22;1391;46.742;11.636;2022-10-23T07:57:31;11.30;99.90
2767;DHT22;1391;46.742;11.636;2022-10-23T07:59:58;11.30;99.90
2767;DHT22;1391;46.742;11.636;2022-10-23T08:02:25;11.30;99.90
2767;DHT22;1391;46.742;11.636;2022-10-23T08:04:54;11.30;99.90
2767;DHT22;1391;46.742;11.636;2022-10-23T08:07:30;11.30;99.90
2767;DHT22;1391;46.742;11.636;2022-10-23T08:09:59;11.20;99.90
2767;DHT22;1391;46.742;11.636;2022-10-23T08:12:28;11.70;99.90
2767;DHT22;1391;46.742;11.636;2022-10-23T08:14:57;11.10;99.90
2767;DHT22;1391;46.742;11.636;2022-10-23T08:17:25;11.60;99.90
2767;DHT22;1391;46.742;11.636;2022-10-23T08:19:53;11.70;99.90
2767;DHT22;1391;46.742;11.636;2022-10-23T08:22:20;11.40;99.90
2767;DHT22;1391;46.742;11.636;2022-10-23T08:24:49;11.70;99.90
2767;DHT22;1391;46.742;11.636;2022-10-23T08:27:16;11.50;99.90
2767;DHT22;1391;46.742;11.636;2022-10-23T08:29:44;11.20;99.90
2767;DHT22;1391;46.742;11.636;2022-10-23T08:32:12;11.40;99.90
2767;DHT22;1391;46.742;11.636;2022-10-23T08:34:40;11.80;99.90
2767;DHT22;1391;46.742;11.636;2022-10-23T08:37:08;11.80;99.90
2767;DHT22;1391;46.742;11.636;2022-10-23T08:39:35;11.80;99.90
2767;DHT22;1391;46.742;11.636;2022-10-23T08:42:04;11.80;99.90
2767;DHT22;1391;46.742;11.636;2022-10-23T08:44:37;11.80;99.90
2767;DHT22;1391;46.742;11.636;2022-10-23T08:47:13;11.80;99.90
2767;DHT22;1391;46.742;11.636;2022-10-23T08:49:48;11.80;99.90
2767;DHT22;1391;46.742;11.636;2022-10-23T08:52:27;11.80;99.90
2767;DHT22;1391;46.742;11.636;2022-10-23T08:55:12;12.40;99.90
2767;DHT22;1391;46.742;11.636;2022-10-23T08:57:48;12.20;99.90
2767;DHT22;1391;46.742;11.636;2022-10-23T09:00:19;12.20;99.90
2767;DHT22;1391;46.742;11.636;2022-10-23T09:02:48;12.30;99.90
2767;DHT22;1391;46.742;11.636;2022-10-23T09:05:18;11.90;99.90
2767;DHT22;1391;46.742;11.636;2022-10-23T09:07:58;12.20;99.90
2767;DHT22;1391;46.742;11.636;2022-10-23T09:10:44;12.40;99.90
2767;DHT22;1391;46.742;11.636;2022-10-23T09:13:37;12.30;99.90
2767;DHT22;1391;46.742;11.636;2022-10-23T09:16:30;12.20;99.90
2767;DHT22;1391;46.742;11.636;2022-10-23T09:19:16;12.20;99.90
2767;DHT22;1391;46.742;11.636;2022-10-23T09:21:47;12.30;99.90
2767;DHT22;1391;46.742;11.636;2022-10-23T09:24:17;12.20;99.90
2767;DHT22;1391;46.742;11.636;2022-10-23T09:26:49;12.30;99.90
2767;DHT22;1391;46.742;11.636;2022-10-23T09:29:25;12.30;99.90
2767;DHT22;1391;46.742;11.636;2022-10-23T09:31:56;12.20;99.90
2767;DHT22;1391;46.742;11.636;2022-10-23T09:34:27;12.30;99.90
2767;DHT22;1391;46.742;11.636;2022-10-23T09:36:58;12.60;99.90
2767;DHT22;1391;46.742;11.636;2022-10-23T09:39:29;12.20;99.90
2767;DHT22;1391;46.742;11.636;2022-10-23T09:41:59;12.20;99.90
2767;DHT22;1391;46.742;11.636;2022-10-23T09:44:30;12.50;99.90
2767;DHT22;1391;46.742;11.636;2022-10-23T09:47:07;12.40;99.90
2767;DHT22;1391;46.742;11.636;2022-10-23T09:49:39;12.60;99.90
2767;DHT22;1391;46.742;11.636;2022-10-23T09:52:59;12.20;99.90
2767;DHT22;1391;46.742;11.636;2022-10-23T09:55:26;12.60;99.90
2767;DHT22;1391;46.742;11.636;2022-10-23T09:57:54;12.90;99.90
2767;DHT22;1391;46.742;11.636;2022-10-23T10:00:25;12.60;99.90
2767;DHT22;1391;46.742;11.636;2022-10-23T10:02:58;12.90;99.90
2767;DHT22;1391;46.742;11.636;2022-10-23T10:05:29;12.70;99.90
2767;DHT22;1391;46.742;11.636;2022-10-23T10:08:02;12.70;99.90
2767;DHT22;1391;46.742;11.636;2022-10-23T10:10:38;12.70;99.90
2767;DHT22;1391;46.742;11.636;2022-10-23T10:13:21;12.70;99.90
2767;DHT22;1391;46.742;11.636;2022-10-23T10:16:07;12.80;99.90
2767;DHT22;1391;46.742;11.636;2022-10-23T10:18:41;12.70;99.90
2767;DHT22;1391;46.742;11.636;2022-10-23T10:21:19;12.80;99.90
2767;DHT22;1391;46.742;11.636;2022-10-23T10:23:51;13.10;99.90
2767;DHT22;1391;46.742;11.636;2022-10-23T10:26:32;13.30;99.90
2767;DHT22;1391;46.742;11.636;2022-10-23T10:29:10;13.10;99.90
2767;DHT22;1391;46.742;11.636;2022-10-23T10:31:54;13.30;99.90
2767;DHT22;1391;46.742;11.636;2022-10-23T10:34:39;13.10;99.90
2767;DHT22;1391;46.742;11.636;2022-10-23T10:37:20;13.20;99.90
2767;DHT22;1391;46.742;11.636;2022-10-23T10:40:09;13.40;99.90
2767;DHT22;1391;46.742;11.636;2022-10-23T10:42:54;13.10;99.90
2767;DHT22;1391;46.742;11.636;2022-10-23T10:45:36;13.20;99.90
2767;DHT22;1391;46.742;11.636;2022-10-23T10:51:27;13.50;99.90
2767;DHT22;1391;46.742;11.636;2022-10-23T10:54:07;13.30;99.90
2767;DHT22;1391;46.742;11.636;2022-10-23T10:56:42;13.20;99.90
2767;DHT22;1391;46.742;11.636;2022-10-23T10:59:15;13.30;99.90
2767;DHT22;1391;46.742;11.636;2022-10-23T11:01:51;13.50;99.90
2767;DHT22;1391;46.742;11.636;2022-10-23T11:04:31;13.60;99.60
2767;DHT22;1391;46.742;11.636;2022-10-23T11:07:08;13.70;97.90
2767;DHT22;1391;46.742;11.636;2022-10-23T11:09:38;13.70;99.90
2767;DHT22;1391;46.742;11.636;2022-10-23T11:12:11;14.00;99.90
2767;DHT22;1391;46.742;11.636;2022-10-23T11:14:42;14.20;99.90
2767;DHT22;1391;46.742;11.636;2022-10-23T11:17:17;14.30;99.90
2767;DHT22;1391;46.742;11.636;2022-10-23T11:19:57;14.50;99.30
2767;DHT22;1391;46.742;11.636;2022-10-23T11:22:35;13.70;99.30
2767;DHT22;1391;46.742;11.636;2022-10-23T11:28:18;14.00;97.60
2767;DHT22;1391;46.742;11.636;2022-10-23T11:31:13;13.60;97.80
2767;DHT22;1391;46.742;11.636;2022-10-23T11:33:59;13.90;99.30
2767;DHT22;1391;46.742;11.636;2022-10-23T11:36:45;13.70;98.50
2767;DHT22;1391;46.742;11.636;2022-10-23T11:39:21;13.60;98.40
2767;DHT22;1391;46.742;11.636;2022-10-23T11:41:55;14.10;99.40
2767;DHT22;1391;46.742;11.636;2022-10-23T11:44:39;13.70;99.90
2767;DHT22;1391;46.742;11.636;2022-10-23T11:47:28;13.70;99.40
2767;DHT22;1391;46.742;11.636;2022-10-23T11:50:15;13.70;99.90
2767;DHT22;1391;46.742;11.636;2022-10-23T11:52:55;13.70;99.10
2767;DHT22;1391;46.742;11.636;2022-10-23T11:55:37;14.10;97.70
2767;DHT22;1391;46.742;11.636;2022-10-23T11:58:20;13.90;97.10
2767;DHT22;1391;46.742;11.636;2022-10-23T12:00:58;13.70;96.30
2767;DHT22;1391;46.742;11.636;2022-10-23T12:03:37;14.10;99.60
2767;DHT22;1391;46.742;11.636;2022-10-23T12:06:21;14.10;99.90
2767;DHT22;1391;46.742;11.636;2022-10-23T12:08:52;13.80;97.80
2767;DHT22;1391;46.742;11.636;2022-10-23T12:11:40;13.70;97.00
2767;DHT22;1391;46.742;11.636;2022-10-23T12:14:27;13.80;99.50
2767;DHT22;1391;46.742;11.636;2022-10-23T12:16:58;14.20;99.90
2767;DHT22;1391;46.742;11.636;2022-10-23T12:19:27;14.40;99.90
2767;DHT22;1391;46.742;11.636;2022-10-23T12:21:58;13.70;99.70
2767;DHT22;1391;46.742;11.636;2022-10-23T12:24:52;14.10;99.30
2767;DHT22;1391;46.742;11.636;2022-10-23T12:27:30;13.70;98.80
2767;DHT22;1391;46.742;11.636;2022-10-23T12:30:15;14.10;98.80
2767;DHT22;1391;46.742;11.636;2022-10-23T12:33:10;14.50;99.90
2767;DHT22;1391;46.742;11.636;2022-10-23T12:36:01;14.20;99.30
2767;DHT22;1391;46.742;11.636;2022-10-23T12:38:41;14.20;99.70
2767;DHT22;1391;46.742;11.636;2022-10-23T12:41:12;14.40;98.90
2767;DHT22;1391;46.742;11.636;2022-10-23T12:43:49;14.10;99.90
2767;DHT22;1391;46.742;11.636;2022-10-23T12:46:35;14.20;99.90
2767;DHT22;1391;46.742;11.636;2022-10-23T12:49:14;14.40;99.90
2767;DHT22;1391;46.742;11.636;2022-10-23T12:51:42;14.10;99.40
2767;DHT22;1391;46.742;11.636;2022-10-23T12:54:14;14.10;99.70
2767;DHT22;1391;46.742;11.636;2022-10-23T12:56:43;14.50;99.70
2767;DHT22;1391;46.742;11.636;2022-10-23T12:59:16;14.00;98.80
2767;DHT22;1391;46.742;11.636;2022-10-23T13:01:44;14.10;99.30
2767;DHT22;1391;46.742;11.636;2022-10-23T13:04:19;14.00;99.50
2767;DHT22;1391;46.742;11.636;2022-10-23T13:06:51;14.10;99.90
2767;DHT22;1391;46.742;11.636;2022-10-23T13:09:23;14.20;99.90
2767;DHT22;1391;46.742;11.636;2022-10-23T13:11:55;14.40;99.60
2767;DHT22;1391;46.742;11.636;2022-10-23T13:14:30;14.10;99.90
2767;DHT22;1391;46.742;11.636;2022-10-23T13:17:02;14.20;99.30
2767;DHT22;1391;46.742;11.636;2022-10-23T13:19:32;14.50;99.90
2767;DHT22;1391;46.742;11.636;2022-10-23T13:22:02;14.30;99.00
2767;DHT22;1391;46.742;11.636;2022-10-23T13:24:32;14.20;99.90
2767;DHT22;1391;46.742;11.636;2022-10-23T13:26:59;14.60;99.90
2767;DHT22;1391;46.742;11.636;2022-10-23T13:29:32;14.20;99.90
2767;DHT22;1391;46.742;11.636;2022-10-23T13:32:09;14.30;99.90
2767;DHT22;1391;46.742;11.636;2022-10-23T13:34:37;14.60;99.90
2767;DHT22;1391;46.742;11.636;2022-10-23T13:37:23;14.30;99.90
2767;DHT22;1391;46.742;11.636;2022-10-23T13:40:03;14.60;99.90
2767;DHT22;1391;46.742;11.636;2022-10-23T13:42:32;14.30;99.90
2767;DHT22;1391;46.742;11.636;2022-10-23T13:45:01;14.70;99.90
2767;DHT22;1391;46.742;11.636;2022-10-23T13:47:30;14.30;99.90
2767;DHT22;1391;46.742;11.636;2022-10-23T13:49:58;14.60;99.90
2767;DHT22;1391;46.742;11.636;2022-10-23T13:52:26;14.20;99.90
2767;DHT22;1391;46.742;11.636;2022-10-23T13:54:55;14.30;99.90
2767;DHT22;1391;46.742;11.636;2022-10-23T13:57:24;14.60;99.90
2767;DHT22;1391;46.742;11.636;2022-10-23T13:59:52;14.60;99.90
2767;DHT22;1391;46.742;11.636;2022-10-23T14:02:25;15.00;99.90
2767;DHT22;1391;46.742;11.636;2022-10-23T14:04:53;14.60;99.90
2767;DHT22;1391;46.742;11.636;2022-10-23T14:07:22;14.30;99.60
2767;DHT22;1391;46.742;11.636;2022-10-23T14:09:50;14.30;99.40
2767;DHT22;1391;46.742;11.636;2022-10-23T14:12:18;14.30;99.90
2767;DHT22;1391;46.742;11.636;2022-10-23T14:14:55;14.60;99.90
2767;DHT22;1391;46.742;11.636;2022-10-23T14:17:30;14.60;99.90
2767;DHT22;1391;46.742;11.636;2022-10-23T14:19:58;14.30;99.90
2767;DHT22;1391;46.742;11.636;2022-10-23T14:22:26;14.20;99.90
2767;DHT22;1391;46.742;11.636;2022-10-23T14:24:53;14.20;99.90
2767;DHT22;1391;46.742;11.636;2022-10-23T14:27:20;14.30;99.90
2767;DHT22;1391;46.742;11.636;2022-10-23T14:29:48;14.20;99.90
2767;DHT22;1391;46.742;11.636;2022-10-23T14:32:15;14.20;99.90
2767;DHT22;1391;46.742;11.636;2022-10-23T14:34:49;14.30;99.90
2767;DHT22;1391;46.742;11.636;2022-10-23T14:37:18;14.10;99.90
2767;DHT22;1391;46.742;11.636;2022-10-23T14:39:48;14.20;99.90
2767;DHT22;1391;46.742;11.636;2022-10-23T14:42:19;14.30;99.90
2767;DHT22;1391;46.742;11.636;2022-10-23T14:44:48;14.20;99.90
2767;DHT22;1391;46.742;11.636;2022-10-23T14:47:16;14.30;99.90
2767;DHT22;1391;46.742;11.636;2022-10-23T14:49:52;14.60;99.90
2767;DHT22;1391;46.742;11.636;2022-10-23T14:52:21;14.40;99.90
2767;DHT22;1391;46.742;11.636;2022-10-23T14:54:51;14.40;99.90
2767;DHT22;1391;46.742;11.636;2022-10-23T14:57:22;14.50;99.90
2767;DHT22;1391;46.742;11.636;2022-10-23T14:59:50;14.20;99.90
2767;DHT22;1391;46.742;11.636;2022-10-23T15:02:18;14.40;99.90
2767;DHT22;1391;46.742;11.636;2022-10-23T15:04:45;14.50;99.90
2767;DHT22;1391;46.742;11.636;2022-10-23T15:07:14;14.50;99.90
2767;DHT22;1391;46.742;11.636;2022-10-23T15:09:42;14.30;99.90
2767;DHT22;1391;46.742;11.636;2022-10-23T15:12:12;14.20;99.90
2767;DHT22;1391;46.742;11.636;2022-10-23T15:14:42;14.40;99.90
2767;DHT22;1391;46.742;11.636;2022-10-23T15:17:09;14.50;99.90
2767;DHT22;1391;46.742;11.636;2022-10-23T15:19:37;14.10;99.90
2767;DHT22;1391;46.742;11.636;2022-10-23T15:22:07;14.10;99.90
2767;DHT22;1391;46.742;11.636;2022-10-23T15:24:36;13.80;99.90
2767;DHT22;1391;46.742;11.636;2022-10-23T15:27:03;14.20;99.90
2767;DHT22;1391;46.742;11.636;2022-10-23T15:29:31;14.00;99.90
2767;DHT22;1391;46.742;11.636;2022-10-23T15:31:58;14.00;99.90
2767;DHT22;1391;46.742;11.636;2022-10-23T15:34:30;13.60;99.90
2767;DHT22;1391;46.742;11.636;2022-10-23T15:36:58;13.70;99.90
2767;DHT22;1391;46.742;11.636;2022-10-23T15:39:31;14.00;99.90
2767;DHT22;1391;46.742;11.636;2022-10-23T15:42:03;13.70;99.90
2767;DHT22;1391;46.742;11.636;2022-10-23T15:44:32;13.60;99.90
2767;DHT22;1391;46.742;11.636;2022-10-23T15:47:00;13.70;99.90
2767;DHT22;1391;46.742;11.636;2022-10-23T15:49:28;13.60;99.90
2767;DHT22;1391;46.742;11.636;2022-10-23T15:51:57;13.70;99.90
2767;DHT22;1391;46.742;11.636;2022-10-23T15:54:25;13.60;99.90
2767;DHT22;1391;46.742;11.636;2022-10-23T15:56:56;13.80;99.90
2767;DHT22;1391;46.742;11.636;2022-10-23T15:59:26;13.60;99.90
2767;DHT22;1391;46.742;11.636;2022-10-23T16:01:54;13.50;99.90
2767;DHT22;1391;46.742;11.636;2022-10-23T16:04:23;13.20;99.90
2767;DHT22;1391;46.742;11.636;2022-10-23T16:06:50;13.30;99.90
2767;DHT22;1391;46.742;11.636;2022-10-23T16:09:21;13.20;99.90
2767;DHT22;1391;46.742;11.636;2022-10-23T16:11:49;13.20;99.90
2767;DHT22;1391;46.742;11.636;2022-10-23T16:14:16;13.30;99.90
2767;DHT22;1391;46.742;11.636;2022-10-23T16:16:45;13.20;99.90
2767;DHT22;1391;46.742;11.636;2022-10-23T16:19:13;13.20;99.90
2767;DHT22;1391;46.742;11.636;2022-10-23T16:21:41;13.30;99.90
2767;DHT22;1391;46.742;11.636;2022-10-23T16:24:09;13.20;99.90
2767;DHT22;1391;46.742;11.636;2022-10-23T16:26:39;13.40;99.90